Time;durP1;ratioP1;P1;durP2;ratioP2;P2;SDS_P1;SDS_P2;PMS_P1;PMS_P2;Temp;Humidity;BMP_temperature;BMP_pressure;BME280_temperature;BME280_humidity;BME280_pressure;Samples;Min_cycle;Max_cycle;Signal;HPM_P1;HPM_P2
2021/08/25 00:00:05;;;;;;;5.60;3.93;;;16.30;96.50;;;;;;5074246;28;20882;-64
2021/08/25 00:02:32;;;;;;;5.70;3.90;;;16.30;96.60;;;;;;5075923;28;20831;-65
2021/08/25 00:04:58;;;;;;;3.83;3.43;;;16.20;96.60;;;;;;5075312;28;20855;-64
2021/08/25 00:07:27;;;;;;;3.37;3.03;;;16.20;96.60;;;;;;5075673;28;20978;-64
2021/08/25 00:09:54;;;;;;;5.93;4.30;;;16.20;96.80;;;;;;5072115;28;20468;-65
2021/08/25 00:12:21;;;;;;;4.83;4.30;;;16.10;96.80;;;;;;5075128;28;20468;-65
2021/08/25 00:14:48;;;;;;;4.20;3.80;;;16.10;96.90;;;;;;5075514;28;20494;-65
2021/08/25 00:17:18;;;;;;;6.10;3.60;;;16.10;97.00;;;;;;5072614;28;20483;-65
2021/08/25 00:19:45;;;;;;;5.47;4.10;;;16.10;97.00;;;;;;5075219;28;20491;-65
2021/08/25 00:22:13;;;;;;;5.57;3.40;;;16.00;97.00;;;;;;5075004;28;20962;-65
2021/08/25 00:24:40;;;;;;;5.53;3.20;;;16.00;97.10;;;;;;5075454;28;20553;-65
2021/08/25 00:27:07;;;;;;;6.43;4.20;;;15.90;97.20;;;;;;5074961;28;20474;-65
2021/08/25 00:29:34;;;;;;;5.00;3.90;;;15.90;97.30;;;;;;5075953;28;20933;-66
2021/08/25 00:32:01;;;;;;;4.33;3.50;;;15.90;97.40;;;;;;5074827;28;21032;-64
2021/08/25 00:34:29;;;;;;;4.00;3.00;;;15.80;97.50;;;;;;5075091;28;20491;-65
2021/08/25 00:36:56;;;;;;;4.27;3.67;;;15.90;97.60;;;;;;5075224;28;20484;-65
2021/08/25 00:39:23;;;;;;;4.47;3.33;;;15.80;97.70;;;;;;5074521;28;20582;-65
2021/08/25 00:41:50;;;;;;;4.73;4.30;;;15.80;97.70;;;;;;5075014;28;21235;-65
2021/08/25 00:44:17;;;;;;;5.23;3.97;;;15.80;97.80;;;;;;5074441;28;20480;-65
2021/08/25 00:46:45;;;;;;;4.60;3.87;;;15.90;97.70;;;;;;5074932;28;20459;-65
2021/08/25 00:49:13;;;;;;;4.20;3.53;;;15.80;97.70;;;;;;5074177;28;20473;-65
2021/08/25 00:51:44;;;;;;;5.93;4.20;;;15.80;97.80;;;;;;5074987;28;20516;-65
2021/08/25 00:54:11;;;;;;;8.00;3.80;;;15.80;97.90;;;;;;5074240;28;20479;-65
2021/08/25 00:56:38;;;;;;;5.77;4.43;;;15.80;98.00;;;;;;5074817;28;20494;-65
2021/08/25 00:59:06;;;;;;;5.00;4.50;;;15.80;98.10;;;;;;5067188;28;20544;-65
2021/08/25 01:01:40;;;;;;;5.57;3.70;;;15.80;98.20;;;;;;5074703;28;20473;-65
2021/08/25 01:04:13;;;;;;;5.00;4.13;;;15.70;98.20;;;;;;5074175;28;20502;-65
2021/08/25 01:06:43;;;;;;;3.67;3.27;;;15.70;98.30;;;;;;5070495;28;20975;-65
2021/08/25 01:09:09;;;;;;;9.03;6.93;;;15.70;98.30;;;;;;5074132;28;20476;-65
2021/08/25 01:11:36;;;;;;;6.63;4.50;;;15.70;98.50;;;;;;5064867;28;20468;-65
2021/08/25 01:14:04;;;;;;;5.10;4.50;;;15.70;98.40;;;;;;5073930;28;20477;-65
2021/08/25 01:16:31;;;;;;;4.33;3.80;;;15.70;98.50;;;;;;5071914;28;20486;-64
2021/08/25 01:18:59;;;;;;;5.30;3.73;;;15.60;98.50;;;;;;5074347;28;20475;-65
2021/08/25 01:21:28;;;;;;;3.97;3.37;;;15.60;98.60;;;;;;5073858;28;20606;-64
2021/08/25 01:23:56;;;;;;;4.00;3.30;;;15.50;98.60;;;;;;5074391;28;20459;-65
2021/08/25 01:26:24;;;;;;;4.73;3.57;;;15.50;98.60;;;;;;5073691;28;20464;-65
2021/08/25 01:28:53;;;;;;;5.93;4.10;;;15.50;98.60;;;;;;5072645;28;20479;-65
2021/08/25 01:31:22;;;;;;;6.30;3.97;;;15.50;98.60;;;;;;5074694;28;20936;-65
2021/08/25 01:33:49;;;;;;;6.93;4.43;;;15.50;98.80;;;;;;5074140;28;20540;-65
2021/08/25 01:36:18;;;;;;;5.10;3.93;;;15.40;98.80;;;;;;5073554;28;20479;-65
2021/08/25 01:38:50;;;;;;;4.10;3.70;;;15.40;98.90;;;;;;5074037;28;20478;-64
2021/08/25 01:41:20;;;;;;;3.97;3.53;;;15.40;99.00;;;;;;5061339;28;20468;-64
2021/08/25 01:43:47;;;;;;;4.33;3.70;;;15.40;99.10;;;;;;5073728;28;20475;-64
2021/08/25 01:46:29;;;;;;;5.63;3.90;;;15.40;99.10;;;;;;5073290;28;20469;-64
2021/08/25 01:48:56;;;;;;;4.77;3.63;;;15.40;99.20;;;;;;5073713;28;20467;-64
2021/08/25 01:51:24;;;;;;;5.40;4.90;;;15.30;99.20;;;;;;5073116;28;20549;-64
2021/08/25 01:53:51;;;;;;;4.90;4.37;;;15.30;99.30;;;;;;5073852;28;20813;-64
2021/08/25 01:56:18;;;;;;;4.77;4.37;;;15.30;99.40;;;;;;5073259;28;20475;-64
2021/08/25 01:58:45;;;;;;;6.83;4.40;;;15.30;99.40;;;;;;5073136;28;20487;-64
2021/08/25 02:01:12;;;;;;;5.37;3.67;;;15.30;99.40;;;;;;5073066;28;20472;-64
2021/08/25 02:03:40;;;;;;;5.10;3.93;;;15.30;99.50;;;;;;5073458;28;20525;-64
2021/08/25 02:06:07;;;;;;;4.10;3.70;;;15.30;99.50;;;;;;5072889;28;20551;-64
2021/08/25 02:08:34;;;;;;;4.27;3.53;;;15.30;99.50;;;;;;5073351;28;20493;-64
2021/08/25 02:11:01;;;;;;;5.93;4.07;;;15.30;99.60;;;;;;5073355;28;20477;-64
2021/08/25 02:13:29;;;;;;;5.00;3.70;;;15.30;99.60;;;;;;5072701;28;20543;-64
2021/08/25 02:15:55;;;;;;;6.23;3.90;;;15.30;99.70;;;;;;5073033;28;20946;-64
2021/08/25 02:18:25;;;;;;;4.63;3.80;;;15.30;99.70;;;;;;5072488;28;20475;-64
2021/08/25 02:20:53;;;;;;;4.30;3.90;;;15.30;99.80;;;;;;5073159;28;21002;-64
2021/08/25 02:23:20;;;;;;;4.60;3.70;;;15.20;99.70;;;;;;5072373;28;20475;-64
2021/08/25 02:25:47;;;;;;;4.53;3.57;;;15.20;99.80;;;;;;5073031;28;21037;-64
2021/08/25 02:28:14;;;;;;;5.60;4.40;;;15.20;99.90;;;;;;5071123;28;20472;-64
2021/08/25 02:30:41;;;;;;;5.97;4.00;;;15.20;99.90;;;;;;5072905;28;20462;-64
2021/08/25 02:33:08;;;;;;;6.23;4.60;;;15.20;99.90;;;;;;5072408;28;20487;-64
2021/08/25 02:35:35;;;;;;;4.83;3.40;;;15.10;99.90;;;;;;5072695;28;20465;-64
2021/08/25 02:38:03;;;;;;;5.80;3.83;;;15.10;99.90;;;;;;5072864;28;20466;-64
2021/08/25 02:40:31;;;;;;;7.13;5.43;;;15.10;99.90;;;;;;5072254;28;20472;-65
2021/08/25 02:42:58;;;;;;;5.47;3.83;;;15.20;99.90;;;;;;5072951;28;21024;-65
2021/08/25 02:45:24;;;;;;;6.63;4.20;;;15.10;99.90;;;;;;5071940;28;20463;-64
2021/08/25 02:47:51;;;;;;;4.43;3.97;;;15.00;99.90;;;;;;5072508;28;20478;-63
2021/08/25 02:50:18;;;;;;;5.60;4.00;;;15.00;99.90;;;;;;5072225;28;20493;-65
2021/08/25 02:52:45;;;;;;;4.63;3.77;;;15.10;99.90;;;;;;5072767;28;20542;-64
2021/08/25 02:55:13;;;;;;;6.10;4.20;;;15.00;99.90;;;;;;5071887;28;20485;-63
2021/08/25 02:57:40;;;;;;;6.20;3.83;;;15.10;99.90;;;;;;5072715;28;20797;-64
2021/08/25 03:00:08;;;;;;;4.67;3.83;;;15.10;99.90;;;;;;5072171;28;20475;-64
2021/08/25 03:02:35;;;;;;;4.87;4.10;;;15.00;99.90;;;;;;5072412;28;20508;-65
2021/08/25 03:05:02;;;;;;;4.00;3.40;;;15.00;99.90;;;;;;5072454;28;20466;-65
2021/08/25 03:07:29;;;;;;;4.23;3.77;;;15.10;99.90;;;;;;5071989;28;20562;-64
2021/08/25 03:09:56;;;;;;;6.37;4.87;;;15.00;99.90;;;;;;5072262;28;20555;-65
2021/08/25 03:12:24;;;;;;;6.77;3.90;;;15.00;99.90;;;;;;5072141;28;20558;-64
2021/08/25 03:14:51;;;;;;;4.13;3.70;;;15.00;99.90;;;;;;5072425;28;20805;-64
2021/08/25 03:17:18;;;;;;;6.97;4.17;;;15.00;99.90;;;;;;5070979;28;20477;-64
2021/08/25 03:19:44;;;;;;;4.90;3.70;;;15.00;99.90;;;;;;5072321;28;20484;-64
2021/08/25 03:22:11;;;;;;;5.43;4.57;;;15.00;99.90;;;;;;5072205;28;20472;-64
2021/08/25 03:24:38;;;;;;;4.90;3.93;;;15.00;99.90;;;;;;5071994;28;20457;-64
2021/08/25 03:27:05;;;;;;;4.13;3.70;;;15.00;99.90;;;;;;5072228;28;20553;-64
2021/08/25 03:29:33;;;;;;;4.07;3.60;;;15.00;99.90;;;;;;5065076;28;20470;-64
2021/08/25 03:32:00;;;;;;;4.87;3.80;;;15.00;99.90;;;;;;5072185;28;20481;-64
2021/08/25 03:34:27;;;;;;;4.37;3.97;;;15.00;99.90;;;;;;5074091;28;21013;-64
2021/08/25 03:36:54;;;;;;;6.13;4.00;;;15.00;99.90;;;;;;5076291;28;20466;-64
2021/08/25 03:39:21;;;;;;;5.00;3.97;;;14.90;99.90;;;;;;5073906;28;20487;-64
2021/08/25 03:41:48;;;;;;;4.30;3.50;;;14.90;99.90;;;;;;5055663;28;20555;-64
2021/08/25 03:44:15;;;;;;;6.00;3.67;;;14.90;99.90;;;;;;5055305;28;20491;-64
2021/08/25 03:46:43;;;;;;;5.10;3.87;;;14.90;99.90;;;;;;5056377;28;20465;-64
2021/08/25 03:49:10;;;;;;;6.03;4.97;;;14.90;99.90;;;;;;5056211;28;20969;-64
2021/08/25 03:51:40;;;;;;;4.88;3.92;;;14.80;99.90;;;;;;5055711;28;20456;-64
2021/08/25 03:54:06;;;;;;;8.60;5.30;;;14.80;99.90;;;;;;5056240;28;20227;-64
2021/08/25 03:56:33;;;;;;;5.80;3.93;;;14.80;99.90;;;;;;5055677;28;20546;-64
2021/08/25 03:59:00;;;;;;;5.60;4.25;;;14.80;99.90;;;;;;5055889;28;20459;-64
2021/08/25 04:01:27;;;;;;;6.87;5.80;;;14.80;99.90;;;;;;5055670;28;20253;-64
2021/08/25 04:03:55;;;;;;;7.00;5.23;;;14.80;99.90;;;;;;5056055;28;20473;-64
2021/08/25 04:06:22;;;;;;;6.40;4.70;;;14.70;99.90;;;;;;5055530;28;20477;-64
2021/08/25 04:08:49;;;;;;;5.97;5.05;;;14.70;99.90;;;;;;5055975;28;20468;-64
2021/08/25 04:11:20;;;;;;;6.07;5.17;;;14.70;99.90;;;;;;5055798;28;20229;-64
2021/08/25 04:13:47;;;;;;;6.80;4.45;;;14.70;99.90;;;;;;5055519;28;20456;-63
2021/08/25 04:16:14;;;;;;;5.83;4.90;;;14.70;99.90;;;;;;5055840;28;20226;-64
2021/08/25 04:18:41;;;;;;;6.95;4.93;;;14.60;99.90;;;;;;5055171;28;20554;-64
2021/08/25 04:21:09;;;;;;;5.50;4.53;;;14.60;99.90;;;;;;5055753;28;20255;-64
2021/08/25 04:23:36;;;;;;;6.60;4.65;;;14.50;99.90;;;;;;5055351;28;20846;-64
2021/08/25 04:26:03;;;;;;;5.70;4.75;;;14.60;99.90;;;;;;5055633;28;20602;-64
2021/08/25 04:28:29;;;;;;;4.88;4.30;;;14.50;99.90;;;;;;5054901;28;20746;-64
2021/08/25 04:30:56;;;;;;;5.63;4.35;;;14.60;99.90;;;;;;5055388;28;20304;-64
2021/08/25 04:33:23;;;;;;;5.45;4.45;;;14.60;99.90;;;;;;5054861;28;20230;-64
2021/08/25 04:35:50;;;;;;;5.10;4.60;;;14.60;99.90;;;;;;5055539;28;20676;-64
2021/08/25 04:38:18;;;;;;;5.50;4.45;;;14.60;99.90;;;;;;5055198;28;20225;-64
2021/08/25 04:40:46;;;;;;;5.53;4.25;;;14.60;99.90;;;;;;5054780;28;20686;-64
2021/08/25 04:43:12;;;;;;;6.55;4.10;;;14.70;99.90;;;;;;5055347;28;20540;-64
2021/08/25 04:45:40;;;;;;;6.43;4.93;;;14.60;99.90;;;;;;5054414;28;20307;-64
2021/08/25 04:48:07;;;;;;;5.80;4.03;;;14.70;99.90;;;;;;5054948;28;20220;-64
2021/08/25 04:50:34;;;;;;;4.28;3.88;;;14.70;99.90;;;;;;5054896;28;20224;-64
2021/08/25 04:53:03;;;;;;;7.20;4.90;;;14.70;99.90;;;;;;5055302;28;20561;-64
2021/08/25 04:55:31;;;;;;;5.07;4.07;;;14.60;99.90;;;;;;5054580;28;20233;-64
2021/08/25 04:57:58;;;;;;;6.53;4.47;;;14.60;99.90;;;;;;5055163;28;20563;-64
2021/08/25 05:00:25;;;;;;;5.77;3.97;;;14.60;99.90;;;;;;5054819;28;20468;-64
2021/08/25 05:02:51;;;;;;;7.65;4.53;;;14.60;99.90;;;;;;5054781;28;20470;-64
2021/08/25 05:05:18;;;;;;;5.87;3.90;;;14.70;99.90;;;;;;5062067;28;20686;-64
2021/08/25 05:07:45;;;;;;;7.80;4.55;;;14.60;99.90;;;;;;5074409;28;20843;-64
2021/08/25 05:10:12;;;;;;;6.07;4.70;;;14.70;99.90;;;;;;5074705;28;20753;-64
2021/08/25 05:12:40;;;;;;;6.73;4.00;;;14.70;99.90;;;;;;5074296;28;20462;-64
2021/08/25 05:15:08;;;;;;;7.30;4.97;;;14.70;99.90;;;;;;5074664;28;20466;-65
2021/08/25 05:17:35;;;;;;;5.53;4.13;;;14.80;99.90;;;;;;5074234;28;20864;-64
2021/08/25 05:20:02;;;;;;;6.73;4.57;;;14.80;99.90;;;;;;5074630;28;20458;-65
2021/08/25 05:22:29;;;;;;;5.60;4.60;;;14.80;99.90;;;;;;5074197;28;20463;-64
2021/08/25 05:24:56;;;;;;;5.53;4.17;;;14.80;99.90;;;;;;5074537;28;20466;-65
2021/08/25 05:27:23;;;;;;;4.70;4.30;;;14.80;99.90;;;;;;5074476;28;20542;-65
2021/08/25 05:29:51;;;;;;;5.67;4.50;;;14.90;99.90;;;;;;5073817;28;20562;-65
2021/08/25 05:32:18;;;;;;;5.67;4.30;;;14.90;99.90;;;;;;5074459;28;20466;-64
2021/08/25 05:34:45;;;;;;;7.87;5.60;;;15.00;99.90;;;;;;5073860;28;20463;-64
2021/08/25 05:37:12;;;;;;;7.33;5.37;;;15.00;99.90;;;;;;5074368;28;20467;-64
2021/08/25 05:39:39;;;;;;;6.57;5.87;;;15.00;99.90;;;;;;5073734;28;20558;-64
2021/08/25 05:42:06;;;;;;;8.87;6.00;;;15.10;99.90;;;;;;5073996;28;20454;-64
2021/08/25 05:44:33;;;;;;;6.07;5.20;;;15.10;99.90;;;;;;5073450;28;20869;-63
2021/08/25 05:47:01;;;;;;;6.80;5.57;;;15.20;99.90;;;;;;5074236;28;20462;-64
2021/08/25 05:49:29;;;;;;;6.57;4.70;;;15.20;99.90;;;;;;5074020;28;20489;-63
2021/08/25 05:51:56;;;;;;;6.33;5.00;;;15.30;99.90;;;;;;5073831;28;20465;-64
2021/08/25 05:54:23;;;;;;;10.00;6.53;;;15.40;99.90;;;;;;5074030;28;20458;-64
2021/08/25 05:56:50;;;;;;;6.47;5.60;;;15.40;99.90;;;;;;5072828;28;21015;-63
2021/08/25 05:59:17;;;;;;;5.97;5.37;;;15.50;99.90;;;;;;5073670;28;20464;-64
2021/08/25 06:01:43;;;;;;;5.20;4.57;;;15.60;99.90;;;;;;5073486;28;20904;-64
2021/08/25 06:04:12;;;;;;;5.43;4.90;;;15.70;99.90;;;;;;5073796;28;20468;-64
2021/08/25 06:06:39;;;;;;;4.90;4.40;;;15.80;99.90;;;;;;5073170;28;20491;-64
2021/08/25 06:09:06;;;;;;;9.03;5.37;;;16.00;99.90;;;;;;5073837;28;20511;-63
2021/08/25 06:11:36;;;;;;;6.13;5.60;;;16.10;99.90;;;;;;5073267;28;20481;-64
2021/08/25 06:14:03;;;;;;;9.00;5.80;;;16.20;99.90;;;;;;5073568;28;20465;-64
2021/08/25 06:16:30;;;;;;;8.43;7.07;;;16.20;99.90;;;;;;5073634;28;20467;-64
2021/08/25 06:18:57;;;;;;;7.93;5.20;;;16.30;99.90;;;;;;5072831;28;20458;-65
2021/08/25 06:21:25;;;;;;;7.27;6.47;;;16.40;99.90;;;;;;5073566;28;20477;-65
2021/08/25 06:23:52;;;;;;;10.60;6.80;;;16.50;99.90;;;;;;5072986;28;20786;-65
2021/08/25 06:26:19;;;;;;;10.77;6.40;;;16.60;99.90;;;;;;5073358;28;20496;-64
2021/08/25 06:28:46;;;;;;;7.63;6.27;;;16.70;99.90;;;;;;5072726;28;20475;-64
2021/08/25 06:31:13;;;;;;;7.63;5.83;;;16.80;99.90;;;;;;5073236;28;20469;-64
2021/08/25 06:33:40;;;;;;;8.60;7.20;;;16.90;99.90;;;;;;5072734;28;20462;-64
2021/08/25 06:36:06;;;;;;;8.20;5.90;;;17.00;99.50;;;;;;5073369;28;20484;-64
2021/08/25 06:38:35;;;;;;;8.60;4.87;;;17.10;98.90;;;;;;5073003;28;20917;-64
2021/08/25 06:41:01;;;;;;;5.53;4.33;;;17.20;98.80;;;;;;5072802;28;21319;-64
2021/08/25 06:43:28;;;;;;;4.73;4.27;;;17.30;98.70;;;;;;5073002;28;20553;-64
2021/08/25 06:45:55;;;;;;;6.60;4.27;;;17.30;98.60;;;;;;5072418;28;20500;-64
2021/08/25 06:48:22;;;;;;;6.80;4.97;;;17.40;98.50;;;;;;5073018;28;20549;-64
2021/08/25 06:50:49;;;;;;;5.43;4.77;;;17.50;98.20;;;;;;5072594;28;20537;-63
2021/08/25 06:53:15;;;;;;;4.70;4.27;;;17.60;98.20;;;;;;5072948;28;20807;-64
2021/08/25 06:55:44;;;;;;;5.37;4.37;;;17.70;97.90;;;;;;5072413;28;20967;-63
2021/08/25 06:58:10;;;;;;;5.20;3.97;;;17.80;97.70;;;;;;5072774;28;20557;-64
2021/08/25 07:00:37;;;;;;;6.30;4.97;;;17.80;97.40;;;;;;5072628;28;20486;-64
2021/08/25 07:03:04;;;;;;;4.97;4.37;;;17.90;97.50;;;;;;5072669;28;20525;-64
2021/08/25 07:05:31;;;;;;;5.80;4.13;;;18.00;97.40;;;;;;5072179;28;20470;-64
2021/08/25 07:08:00;;;;;;;4.97;3.60;;;18.00;97.30;;;;;;5052148;28;20467;-64
2021/08/25 07:10:26;;;;;;;6.00;4.50;;;18.10;97.20;;;;;;5052757;28;21022;-64
2021/08/25 07:12:55;;;;;;;4.60;4.13;;;18.20;96.90;;;;;;5052220;28;20495;-64
2021/08/25 07:15:22;;;;;;;6.40;4.40;;;18.30;96.70;;;;;;5052430;28;20463;-64
2021/08/25 07:17:48;;;;;;;8.90;4.40;;;18.30;96.70;;;;;;5052139;28;20547;-64
2021/08/25 07:20:15;;;;;;;5.77;5.07;;;18.40;96.30;;;;;;5052482;28;20538;-64
2021/08/25 07:22:43;;;;;;;6.27;4.50;;;18.50;96.10;;;;;;5052133;28;20866;-64
2021/08/25 07:25:11;;;;;;;4.83;3.63;;;18.50;96.00;;;;;;5052632;28;20467;-64
2021/08/25 07:27:39;;;;;;;8.43;3.47;;;18.60;95.80;;;;;;5052205;28;20538;-64
2021/08/25 07:30:08;;;;;;;5.80;3.40;;;18.60;95.70;;;;;;5051900;28;20470;-64
2021/08/25 07:32:35;;;;;;;6.53;3.70;;;18.70;95.70;;;;;;5052541;28;20550;-64
2021/08/25 07:35:02;;;;;;;4.50;4.00;;;18.70;95.50;;;;;;5051871;28;20459;-64
2021/08/25 07:37:29;;;;;;;6.80;4.07;;;18.80;95.10;;;;;;5052442;28;20542;-64
2021/08/25 07:39:56;;;;;;;4.50;3.80;;;18.80;94.70;;;;;;5051818;28;20487;-64
2021/08/25 07:42:22;;;;;;;5.30;3.80;;;18.90;94.90;;;;;;5052339;28;20546;-64
2021/08/25 07:44:49;;;;;;;4.23;3.50;;;18.90;94.70;;;;;;5051579;28;20983;-64
2021/08/25 07:47:18;;;;;;;4.80;3.40;;;18.90;94.70;;;;;;5052330;28;20770;-65
2021/08/25 07:49:44;;;;;;;5.13;3.77;;;19.00;94.50;;;;;;5051781;28;20481;-64
2021/08/25 07:52:11;;;;;;;3.73;3.43;;;19.00;94.10;;;;;;5052237;28;20546;-64
2021/08/25 07:54:38;;;;;;;4.80;3.30;;;19.00;93.80;;;;;;5052222;28;20489;-64
2021/08/25 07:57:05;;;;;;;3.47;3.07;;;19.10;93.70;;;;;;5051698;28;20998;-64
2021/08/25 07:59:32;;;;;;;4.40;3.10;;;19.20;93.20;;;;;;5052009;28;20957;-64
2021/08/25 08:01:59;;;;;;;4.03;3.13;;;19.20;92.90;;;;;;5051843;28;20931;-64
2021/08/25 08:04:27;;;;;;;4.27;3.00;;;19.30;93.00;;;;;;5052205;28;20463;-64
2021/08/25 08:06:54;;;;;;;4.27;3.27;;;19.40;92.50;;;;;;5051660;28;20480;-64
2021/08/25 08:09:21;;;;;;;3.67;2.90;;;19.40;92.60;;;;;;5051940;28;20542;-64
2021/08/25 08:11:48;;;;;;;5.90;3.30;;;19.50;92.50;;;;;;5051708;28;20491;-64
2021/08/25 08:14:15;;;;;;;4.53;3.40;;;19.60;92.50;;;;;;5052195;28;20465;-64
2021/08/25 08:16:44;;;;;;;4.17;3.40;;;19.60;92.60;;;;;;5051893;28;20546;-64
2021/08/25 08:19:22;;;;;;;3.10;2.80;;;19.60;92.00;;;;;;5051758;28;20459;-64
2021/08/25 08:21:51;;;;;;;3.90;3.50;;;19.70;91.70;;;;;;5055325;28;20529;-64
2021/08/25 08:24:18;;;;;;;6.03;3.23;;;19.70;91.60;;;;;;5055906;28;20858;-64
2021/08/25 08:26:47;;;;;;;4.77;3.57;;;19.70;91.60;;;;;;5055718;28;20919;-64
2021/08/25 08:29:14;;;;;;;4.43;3.07;;;19.80;91.70;;;;;;5055077;28;20455;-64
2021/08/25 08:31:41;;;;;;;3.03;2.70;;;19.80;91.80;;;;;;5055589;28;20961;-64
2021/08/25 08:34:07;;;;;;;5.33;3.20;;;19.90;91.70;;;;;;5055023;28;20477;-64
2021/08/25 08:36:34;;;;;;;2.83;2.63;;;19.90;91.80;;;;;;5055680;28;20542;-65
2021/08/25 08:39:03;;;;;;;4.50;3.23;;;19.90;91.90;;;;;;5054851;28;20475;-64
2021/08/25 08:41:30;;;;;;;3.50;2.70;;;20.00;91.90;;;;;;5055286;28;20469;-64
2021/08/25 08:43:57;;;;;;;5.90;2.90;;;20.00;91.80;;;;;;5054656;28;20467;-64
2021/08/25 08:46:25;;;;;;;3.60;2.80;;;20.10;91.90;;;;;;5055295;28;20455;-64
2021/08/25 08:48:53;;;;;;;5.13;2.93;;;20.20;91.60;;;;;;5054754;28;20479;-65
2021/08/25 08:51:22;;;;;;;2.93;2.60;;;20.20;91.50;;;;;;5055269;28;20535;-64
2021/08/25 08:53:50;;;;;;;4.07;3.67;;;20.30;91.40;;;;;;5055142;28;20817;-64
2021/08/25 08:56:19;;;;;;;3.73;3.43;;;20.30;91.50;;;;;;5054751;28;20459;-64
2021/08/25 08:58:48;;;;;;;5.00;4.30;;;20.40;91.50;;;;;;5054833;28;20467;-64
2021/08/25 09:01:15;;;;;;;3.47;2.93;;;20.40;91.50;;;;;;5054428;28;20461;-64
2021/08/25 09:03:42;;;;;;;4.50;3.47;;;20.50;91.60;;;;;;5054837;28;20471;-64
2021/08/25 09:06:10;;;;;;;3.70;3.27;;;20.50;91.50;;;;;;5060229;28;20462;-65
2021/08/25 09:08:39;;;;;;;4.57;3.40;;;20.50;91.30;;;;;;5074729;28;21028;-64
2021/08/25 09:11:08;;;;;;;4.23;3.07;;;20.50;91.40;;;;;;5074383;28;20469;-64
2021/08/25 09:13:42;;;;;;;3.77;3.40;;;20.50;91.50;;;;;;5074879;28;20541;-64
2021/08/25 09:16:09;;;;;;;4.57;4.00;;;20.60;91.50;;;;;;5074194;28;20462;-65
2021/08/25 09:18:36;;;;;;;5.07;3.77;;;20.60;91.50;;;;;;5074672;28;20584;-65
2021/08/25 09:21:03;;;;;;;4.50;3.87;;;20.60;91.50;;;;;;5074213;28;20454;-65
2021/08/25 09:23:31;;;;;;;4.50;3.67;;;20.60;91.50;;;;;;5074660;28;20472;-65
2021/08/25 09:26:01;;;;;;;2.93;2.70;;;20.60;91.50;;;;;;5074246;28;20467;-64
2021/08/25 09:28:31;;;;;;;3.43;3.13;;;20.60;91.60;;;;;;5074264;28;20462;-64
2021/08/25 09:31:01;;;;;;;6.63;4.17;;;20.60;91.60;;;;;;5073311;28;20956;-64
2021/08/25 09:33:31;;;;;;;4.63;3.80;;;20.60;91.40;;;;;;5074190;28;20811;-64
2021/08/25 09:36:01;;;;;;;4.37;3.80;;;20.60;91.50;;;;;;5074017;28;20792;-64
2021/08/25 09:38:29;;;;;;;4.27;3.47;;;20.60;91.30;;;;;;5074431;28;20783;-64
2021/08/25 09:40:58;;;;;;;3.90;3.50;;;20.60;91.40;;;;;;5073684;28;20467;-65
2021/08/25 09:43:42;;;;;;;4.97;3.77;;;20.60;91.60;;;;;;5074128;28;20530;-64
2021/08/25 09:46:18;;;;;;;3.83;3.30;;;20.60;91.70;;;;;;5073573;28;20811;-64
2021/08/25 09:48:47;;;;;;;4.53;3.60;;;20.60;91.80;;;;;;5074092;28;20474;-64
2021/08/25 09:51:15;;;;;;;4.87;3.50;;;20.60;91.80;;;;;;5073431;28;20462;-64
2021/08/25 09:53:45;;;;;;;4.73;3.83;;;20.60;91.70;;;;;;5074036;28;20990;-65
2021/08/25 09:56:26;;;;;;;3.83;3.43;;;20.60;91.70;;;;;;5073547;28;20541;-64
2021/08/25 09:58:53;;;;;;;3.80;3.40;;;20.60;91.90;;;;;;5073843;28;20549;-64
2021/08/25 10:01:21;;;;;;;4.03;3.63;;;20.60;92.10;;;;;;5073265;28;20458;-64
2021/08/25 10:03:48;;;;;;;5.80;4.13;;;20.60;92.20;;;;;;5073763;28;20470;-64
2021/08/25 10:06:16;;;;;;;5.37;3.90;;;20.60;92.20;;;;;;5073233;28;20542;-65
2021/08/25 10:08:44;;;;;;;3.70;3.30;;;20.60;92.20;;;;;;5073656;28;20482;-64
2021/08/25 10:11:11;;;;;;;4.13;3.73;;;20.60;92.10;;;;;;5073231;28;20811;-64
2021/08/25 10:13:39;;;;;;;3.83;3.53;;;20.50;91.80;;;;;;5073630;28;20466;-65
2021/08/25 10:16:06;;;;;;;5.73;4.20;;;20.50;91.80;;;;;;5073183;28;20812;-64
2021/08/25 10:18:39;;;;;;;3.80;3.43;;;20.50;91.80;;;;;;5073606;28;20470;-64
2021/08/25 10:21:41;;;;;;;4.20;3.37;;;20.50;91.90;;;;;;5073054;28;20894;-64
2021/08/25 10:24:08;;;;;;;3.90;3.40;;;20.50;91.80;;;;;;5072983;28;20469;-64
2021/08/25 10:27:06;;;;;;;3.77;3.47;;;20.40;91.80;;;;;;5073372;28;20562;-64
2021/08/25 10:29:33;;;;;;;8.73;4.63;;;20.40;92.20;;;;;;5072926;28;20463;-64
2021/08/25 10:32:13;;;;;;;4.30;3.40;;;20.40;91.90;;;;;;5073158;28;20470;-64
2021/08/25 10:34:43;;;;;;;5.17;3.60;;;20.40;92.00;;;;;;5073104;28;20524;-64
2021/08/25 10:37:30;;;;;;;3.87;3.57;;;20.40;92.30;;;;;;5073176;28;20569;-64
2021/08/25 10:40:03;;;;;;;4.50;2.87;;;20.40;91.90;;;;;;5072735;28;20474;-65
2021/08/25 10:42:47;;;;;;;4.00;3.60;;;20.30;92.50;;;;;;5067135;28;20454;-64
2021/08/25 10:45:14;;;;;;;3.80;3.50;;;20.30;93.20;;;;;;5071715;28;20470;-64
2021/08/25 10:47:59;;;;;;;10.20;8.50;;;20.30;92.70;;;;;;5072253;28;20468;-65
2021/08/25 10:50:48;;;;;;;5.37;4.87;;;20.30;92.50;;;;;;5071957;28;20481;-64
2021/08/25 10:53:40;;;;;;;5.60;4.13;;;20.30;92.40;;;;;;5071676;28;20478;-64
2021/08/25 10:56:09;;;;;;;4.90;3.60;;;20.30;92.30;;;;;;5072404;28;20550;-64
2021/08/25 10:58:47;;;;;;;4.00;3.60;;;20.30;92.20;;;;;;5072787;28;20466;-64
2021/08/25 11:01:21;;;;;;;5.80;4.10;;;20.40;92.30;;;;;;5072260;28;20514;-63
2021/08/25 11:03:49;;;;;;;4.40;3.90;;;20.40;92.40;;;;;;5072927;28;21034;-64
2021/08/25 11:06:36;;;;;;;5.00;3.73;;;20.50;92.50;;;;;;5072346;28;20960;-64
2021/08/25 11:09:23;;;;;;;4.70;3.43;;;20.50;92.50;;;;;;5072123;28;20538;-66
2021/08/25 11:11:53;;;;;;;3.77;3.43;;;20.50;92.40;;;;;;5072793;28;20545;-67
2021/08/25 11:14:23;;;;;;;41.23;35.30;;;20.50;92.40;;;;;;5071595;28;20554;-67
2021/08/25 11:16:51;;;;;;;5.93;4.90;;;20.60;93.30;;;;;;5071534;28;20462;-67
2021/08/25 11:19:23;;;;;;;4.80;4.00;;;20.70;92.00;;;;;;5072066;28;20545;-66
2021/08/25 11:21:52;;;;;;;7.60;5.30;;;20.70;91.70;;;;;;5072612;28;20458;-67
2021/08/25 11:24:19;;;;;;;5.67;4.33;;;20.80;91.90;;;;;;5072084;28;20484;-67
2021/08/25 11:26:46;;;;;;;4.27;3.30;;;20.70;91.90;;;;;;5072669;28;20473;-67
2021/08/25 11:29:20;;;;;;;3.70;3.40;;;20.80;91.90;;;;;;5072022;28;20553;-67
2021/08/25 11:31:48;;;;;;;18.37;13.50;;;20.80;92.20;;;;;;5072476;28;20469;-67
2021/08/25 11:34:15;;;;;;;23.70;21.13;;;20.90;92.60;;;;;;5071927;28;20497;-67
2021/08/25 11:37:02;;;;;;;39.33;32.17;;;21.00;93.00;;;;;;5072473;28;20545;-67
2021/08/25 11:39:30;;;;;;;36.20;31.10;;;21.10;92.90;;;;;;5071775;28;20462;-67
2021/08/25 11:41:58;;;;;;;10.57;9.43;;;21.20;93.10;;;;;;5072303;28;20458;-67
2021/08/25 11:44:42;;;;;;;7.97;6.73;;;21.30;92.20;;;;;;5071645;28;21026;-67
2021/08/25 11:47:15;;;;;;;18.80;16.90;;;21.40;91.80;;;;;;5072228;28;20476;-67
2021/08/25 11:49:44;;;;;;;8.63;7.83;;;21.50;92.30;;;;;;5072274;28;20968;-67
2021/08/25 11:52:13;;;;;;;6.00;5.27;;;21.50;92.10;;;;;;5071724;28;20462;-66
2021/08/25 11:54:41;;;;;;;28.20;25.30;;;21.60;91.60;;;;;;5073163;28;20466;-67
2021/08/25 11:57:11;;;;;;;10.20;8.87;;;21.60;92.00;;;;;;5075780;28;20463;-67
2021/08/25 11:59:55;;;;;;;5.10;4.60;;;21.70;91.90;;;;;;5076050;28;20470;-67
2021/08/25 12:02:22;;;;;;;6.43;5.83;;;21.70;91.50;;;;;;5075545;28;20487;-67
2021/08/25 12:04:48;;;;;;;6.07;5.50;;;21.70;91.70;;;;;;5076311;28;20839;-67
2021/08/25 12:07:17;;;;;;;9.43;8.40;;;21.80;91.30;;;;;;5075613;28;20465;-67
2021/08/25 12:09:45;;;;;;;7.13;4.80;;;21.90;91.40;;;;;;5075983;28;20485;-67
2021/08/25 12:12:12;;;;;;;15.13;13.23;;;21.90;91.00;;;;;;5075575;28;20477;-67
2021/08/25 12:14:55;;;;;;;7.33;5.27;;;22.00;91.20;;;;;;5075717;28;20470;-67
2021/08/25 12:17:23;;;;;;;7.53;6.67;;;22.00;90.90;;;;;;5075346;28;20462;-67
2021/08/25 12:20:01;;;;;;;5.03;4.53;;;22.10;91.00;;;;;;5075601;28;20964;-67
2021/08/25 12:22:30;;;;;;;10.67;7.27;;;22.10;90.80;;;;;;5075375;28;20469;-67
2021/08/25 12:24:59;;;;;;;10.40;5.70;;;22.20;91.10;;;;;;5075637;28;20466;-67
2021/08/25 12:27:34;;;;;;;6.20;4.97;;;22.30;90.90;;;;;;5075145;28;20466;-67
2021/08/25 12:30:01;;;;;;;8.60;7.27;;;22.30;90.90;;;;;;5075518;28;20830;-65
2021/08/25 12:32:42;;;;;;;7.43;4.30;;;22.30;91.00;;;;;;5075095;28;20458;-67
2021/08/25 12:35:09;;;;;;;5.63;4.60;;;22.40;90.70;;;;;;5075013;28;20537;-67
2021/08/25 12:37:54;;;;;;;7.07;5.83;;;22.40;90.90;;;;;;5075526;28;20536;-67
2021/08/25 12:40:23;;;;;;;6.73;5.43;;;22.40;90.90;;;;;;5074846;28;20561;-66
2021/08/25 12:42:51;;;;;;;15.10;12.60;;;22.40;91.00;;;;;;5075539;28;20491;-66
2021/08/25 12:45:20;;;;;;;25.13;22.37;;;22.50;91.50;;;;;;5074481;28;20985;-66
2021/08/25 12:47:48;;;;;;;22.43;19.33;;;22.50;92.80;;;;;;5075220;28;20466;-66
2021/08/25 12:50:16;;;;;;;22.60;19.53;;;22.40;92.10;;;;;;5068250;28;20466;-66
2021/08/25 12:52:43;;;;;;;20.00;17.90;;;22.40;92.70;;;;;;5075281;28;20485;-67